Time;durP1;ratioP1;P1;durP2;ratioP2;P2;SDS_P1;SDS_P2;PMS_P1;PMS_P2;Temp;Humidity;BMP_temperature;BMP_pressure;BME280_temperature;BME280_humidity;BME280_pressure;Samples;Min_cycle;Max_cycle;Signal;HPM_P1;HPM_P2
2021/11/17 02:28:06;;;;;;;28.10;15.48;;;11.10;99.90;;;;;;5016242;28;20076;-73
2021/11/17 02:30:39;;;;;;;25.27;15.15;;;11.10;99.90;;;;;;5016665;28;20104;-72
2021/11/17 02:33:30;;;;;;;26.92;16.08;;;11.10;99.90;;;;;;5016671;28;20033;-73
2021/11/17 02:36:21;;;;;;;28.10;16.65;;;11.10;99.90;;;;;;5015923;28;20026;-72
2021/11/17 02:39:10;;;;;;;27.27;15.60;;;11.10;99.90;;;;;;5016488;28;20030;-71
2021/11/17 02:41:43;;;;;;;25.27;15.68;;;11.10;99.90;;;;;;5015994;28;20045;-73
2021/11/17 02:44:42;;;;;;;27.70;16.30;;;11.20;99.90;;;;;;5015842;28;20038;-72
2021/11/17 02:47:14;;;;;;;30.23;17.33;;;11.10;99.90;;;;;;5016107;28;20068;-74
2021/11/17 02:49:42;;;;;;;25.48;15.18;;;11.10;99.90;;;;;;5015803;28;20389;-74
2021/11/17 02:52:46;;;;;;;25.25;15.20;;;11.20;99.90;;;;;;4998162;28;20411;-71
2021/11/17 02:55:26;;;;;;;23.35;14.45;;;11.20;99.90;;;;;;5016229;28;20178;-72
2021/11/17 02:58:06;;;;;;;23.33;14.63;;;11.10;99.90;;;;;;5015861;28;20093;-72
2021/11/17 03:00:51;;;;;;;20.93;13.63;;;11.20;99.90;;;;;;5014465;28;20018;-72
2021/11/17 03:04:01;;;;;;;23.50;14.45;;;11.10;99.90;;;;;;5015438;28;20423;-72
2021/11/17 03:06:44;;;;;;;23.73;14.38;;;11.10;99.90;;;;;;5015056;28;20476;-72
2021/11/17 03:09:20;;;;;;;23.65;14.63;;;11.10;99.90;;;;;;5015730;28;20538;-74
2021/11/17 03:11:56;;;;;;;21.48;13.20;;;11.10;99.90;;;;;;5014220;28;20018;-71
2021/11/17 03:14:40;;;;;;;21.17;12.55;;;11.10;99.90;;;;;;5015627;28;20032;-72
2021/11/17 03:17:36;;;;;;;23.42;13.82;;;11.10;99.90;;;;;;5015821;28;20030;-74
2021/11/17 03:20:02;;;;;;;21.05;13.00;;;11.20;99.90;;;;;;5014386;28;20029;-73
2021/11/17 03:22:27;;;;;;;22.20;14.23;;;11.20;99.90;;;;;;5015078;28;20373;-71
2021/11/17 03:25:06;;;;;;;26.33;17.02;;;11.20;99.90;;;;;;5015124;28;20029;-72
2021/11/17 03:27:57;;;;;;;21.48;14.35;;;11.20;99.90;;;;;;5015404;28;20021;-71
2021/11/17 03:30:35;;;;;;;22.63;13.75;;;11.20;99.90;;;;;;5014147;28;20057;-73
2021/11/17 03:33:11;;;;;;;23.02;13.85;;;11.20;99.90;;;;;;5014152;28;20052;-73
2021/11/17 03:36:04;;;;;;;21.35;12.32;;;11.20;99.90;;;;;;5013646;28;20097;-71
2021/11/17 03:38:44;;;;;;;21.15;13.23;;;11.20;99.90;;;;;;5014981;28;20072;-72
2021/11/17 03:41:48;;;;;;;22.65;14.05;;;11.20;99.90;;;;;;5014960;28;20049;-74
2021/11/17 03:44:46;;;;;;;21.30;12.90;;;11.20;99.90;;;;;;5014975;28;20068;-72
2021/11/17 03:47:27;;;;;;;24.13;14.13;;;11.20;99.90;;;;;;4981625;28;20038;-73
2021/11/17 03:50:28;;;;;;;20.05;12.07;;;11.20;99.90;;;;;;5014651;28;20022;-73
2021/11/17 03:53:14;;;;;;;19.17;12.25;;;11.20;99.90;;;;;;4964716;28;20531;-73
2021/11/17 03:55:49;;;;;;;20.38;12.40;;;11.20;99.90;;;;;;5014830;28;20476;-73
2021/11/17 03:58:37;;;;;;;22.52;13.32;;;11.20;99.90;;;;;;5014493;28;20030;-73
2021/11/17 04:01:08;;;;;;;21.38;13.18;;;11.20;99.90;;;;;;5015017;28;20050;-73
2021/11/17 04:03:45;;;;;;;20.10;12.80;;;11.10;99.90;;;;;;5014639;28;20037;-73
2021/11/17 04:06:29;;;;;;;20.42;12.98;;;11.10;99.90;;;;;;5014365;28;20105;-73
2021/11/17 04:09:45;;;;;;;21.90;13.75;;;11.10;99.90;;;;;;5014621;28;20026;-72
2021/11/17 04:12:52;;;;;;;18.80;11.50;;;11.00;99.90;;;;;;4989220;28;20137;-71
2021/11/17 04:15:35;;;;;;;17.63;11.73;;;11.00;99.90;;;;;;4953772;29;20024;-72
2021/11/17 04:18:25;;;;;;;17.40;11.27;;;11.00;99.90;;;;;;4954145;29;20385;-73
2021/11/17 04:21:24;;;;;;;16.58;11.02;;;10.90;99.90;;;;;;4999112;28;20041;-73
2021/11/17 04:24:05;;;;;;;17.60;10.30;;;10.90;99.90;;;;;;5014323;28;20032;-74
2021/11/17 04:26:46;;;;;;;16.00;10.30;;;10.90;99.90;;;;;;5013478;28;20105;-72
2021/11/17 04:29:33;;;;;;;19.17;11.30;;;10.90;99.90;;;;;;5014277;28;20022;-73
2021/11/17 04:32:11;;;;;;;16.42;10.88;;;10.80;99.90;;;;;;5013728;28;20076;-72
2021/11/17 04:34:43;;;;;;;16.67;11.48;;;10.90;99.90;;;;;;5013032;28;20022;-73
2021/11/17 04:37:33;;;;;;;16.52;10.45;;;10.80;99.90;;;;;;5013851;28;20109;-73
2021/11/17 04:40:04;;;;;;;16.70;10.63;;;10.80;99.90;;;;;;5014153;28;20033;-71
2021/11/17 04:42:49;;;;;;;16.70;10.18;;;10.70;99.90;;;;;;5013956;28;20038;-74
2021/11/17 04:45:32;;;;;;;15.68;9.82;;;10.70;99.90;;;;;;5012953;28;20018;-73
2021/11/17 04:48:10;;;;;;;14.90;9.60;;;10.80;99.90;;;;;;5012858;28;20033;-70
2021/11/17 04:51:02;;;;;;;15.48;10.45;;;10.80;99.90;;;;;;5013685;28;20072;-73
2021/11/17 04:53:43;;;;;;;19.60;9.65;;;10.80;99.90;;;;;;5013912;28;20052;-73
2021/11/17 04:56:31;;;;;;;17.45;10.43;;;10.80;99.90;;;;;;5014100;28;20026;-73
2021/11/17 04:59:20;;;;;;;16.38;9.70;;;10.80;99.90;;;;;;5013522;28;20447;-71
2021/11/17 05:01:49;;;;;;;15.32;9.32;;;10.80;99.90;;;;;;5013801;28;20026;-74
2021/11/17 05:04:20;;;;;;;15.80;9.38;;;10.80;99.90;;;;;;5013660;28;20026;-72
2021/11/17 05:07:21;;;;;;;14.95;9.60;;;10.80;99.90;;;;;;5013775;28;20036;-73
2021/11/17 05:09:52;;;;;;;14.68;9.85;;;10.80;99.90;;;;;;4992977;28;20049;-73
2021/11/17 05:12:42;;;;;;;15.70;8.88;;;10.80;99.90;;;;;;5013716;28;20033;-74
2021/11/17 05:15:53;;;;;;;15.95;9.45;;;10.80;99.90;;;;;;5014016;28;20025;-73
2021/11/17 05:18:33;;;;;;;16.00;9.50;;;10.90;99.90;;;;;;4997985;28;20034;-73
2021/11/17 05:21:14;;;;;;;13.95;8.63;;;10.90;99.90;;;;;;5012490;28;20026;-74
2021/11/17 05:23:42;;;;;;;14.13;8.35;;;10.90;99.90;;;;;;5012736;28;20030;-73
2021/11/17 05:26:17;;;;;;;12.35;8.02;;;11.00;99.90;;;;;;5013264;28;20053;-73
2021/11/17 05:29:13;;;;;;;14.35;8.95;;;11.00;99.90;;;;;;5012403;28;20054;-73
2021/11/17 05:31:42;;;;;;;12.80;8.23;;;11.00;99.90;;;;;;5013786;28;20061;-72
2021/11/17 05:34:33;;;;;;;16.83;8.95;;;11.00;99.90;;;;;;5013680;28;20030;-73
2021/11/17 05:37:23;;;;;;;13.85;8.38;;;11.00;99.90;;;;;;5012314;28;20018;-73
2021/11/17 05:40:13;;;;;;;15.45;10.30;;;11.00;99.90;;;;;;5013490;28;20498;-73
2021/11/17 05:42:54;;;;;;;15.45;9.75;;;11.00;99.90;;;;;;5011954;28;20038;-73
2021/11/17 05:45:53;;;;;;;27.10;18.38;;;11.10;99.90;;;;;;5017276;28;20022;-72
2021/11/17 05:48:43;;;;;;;47.37;30.63;;;11.10;99.90;;;;;;5016926;28;20029;-71
2021/11/17 05:51:20;;;;;;;40.60;24.95;;;11.00;99.90;;;;;;5017204;28;20459;-72
2021/11/17 05:54:36;;;;;;;14.73;9.00;;;10.90;99.90;;;;;;5017140;28;20538;-73
2021/11/17 05:57:05;;;;;;;18.75;10.50;;;10.90;99.90;;;;;;4956358;29;20071;-74
2021/11/17 05:59:36;;;;;;;13.52;8.75;;;10.90;99.90;;;;;;5005042;28;20531;-71
2021/11/17 06:02:41;;;;;;;12.23;8.23;;;10.90;99.90;;;;;;5016710;28;20084;-74
2021/11/17 06:05:06;;;;;;;13.23;8.98;;;10.90;99.90;;;;;;4986584;28;20038;-72
2021/11/17 06:07:32;;;;;;;19.10;11.93;;;10.90;99.90;;;;;;5016593;28;20022;-72
2021/11/17 06:10:19;;;;;;;17.00;10.18;;;10.90;99.90;;;;;;5016533;28;20494;-73
2021/11/17 06:12:45;;;;;;;12.10;7.38;;;10.80;99.90;;;;;;5016745;28;20475;-72
2021/11/17 06:15:13;;;;;;;12.90;7.72;;;10.90;99.90;;;;;;5016447;28;20149;-72
2021/11/17 06:17:40;;;;;;;17.35;10.55;;;11.00;99.90;;;;;;5016411;28;20030;-72
2021/11/17 06:20:10;;;;;;;14.55;9.75;;;10.80;99.90;;;;;;5016329;28;20499;-73
2021/11/17 06:22:36;;;;;;;14.73;8.45;;;10.90;99.90;;;;;;5016242;28;20028;-73
2021/11/17 06:25:07;;;;;;;15.88;8.18;;;11.00;99.90;;;;;;5016569;28;20395;-72
2021/11/17 06:27:37;;;;;;;12.95;8.48;;;10.90;99.90;;;;;;5016208;28;20515;-73
2021/11/17 06:30:09;;;;;;;14.40;9.17;;;10.90;99.90;;;;;;5016152;28;20395;-73
2021/11/17 06:32:34;;;;;;;13.63;10.10;;;10.90;99.90;;;;;;5016393;28;20392;-73
2021/11/17 06:35:02;;;;;;;14.77;10.10;;;11.00;99.90;;;;;;5016107;28;20022;-72
2021/11/17 06:37:29;;;;;;;13.07;7.90;;;11.00;99.90;;;;;;4998395;28;20030;-74
2021/11/17 06:39:58;;;;;;;14.27;9.55;;;10.90;99.90;;;;;;5015971;28;20022;-71
2021/11/17 06:42:46;;;;;;;13.05;7.15;;;10.90;99.90;;;;;;5015472;28;20685;-73
2021/11/17 06:45:19;;;;;;;18.45;10.73;;;11.00;99.90;;;;;;5016204;28;20064;-73
2021/11/17 06:47:45;;;;;;;16.63;9.57;;;11.10;99.90;;;;;;5015789;28;20060;-73
2021/11/17 06:50:12;;;;;;;18.50;10.60;;;11.00;99.90;;;;;;5016071;28;20448;-73
2021/11/17 06:52:38;;;;;;;14.05;9.52;;;11.00;99.90;;;;;;5015764;28;20076;-72
2021/11/17 06:55:04;;;;;;;17.67;10.68;;;11.00;99.90;;;;;;5015191;28;20492;-73
2021/11/17 06:57:30;;;;;;;15.77;11.45;;;11.00;99.90;;;;;;5016149;28;20079;-73
2021/11/17 06:59:56;;;;;;;16.92;10.40;;;11.00;99.90;;;;;;5015614;28;20113;-72
2021/11/17 07:02:21;;;;;;;11.77;7.80;;;11.00;99.90;;;;;;5015776;28;20097;-73
2021/11/17 07:04:47;;;;;;;13.32;7.25;;;11.00;99.90;;;;;;5015516;28;20048;-73
2021/11/17 07:07:14;;;;;;;10.70;7.07;;;11.00;99.90;;;;;;5015748;28;20032;-71
2021/11/17 07:09:41;;;;;;;13.77;7.60;;;11.00;99.90;;;;;;5015419;28;20040;-72
2021/11/17 07:12:07;;;;;;;13.35;7.70;;;11.00;99.90;;;;;;5015340;28;20080;-72
2021/11/17 07:14:33;;;;;;;10.50;7.15;;;10.90;99.90;;;;;;5015334;28;20514;-71
2021/11/17 07:16:59;;;;;;;10.70;7.55;;;10.90;99.90;;;;;;5015552;28;20014;-74
2021/11/17 07:19:26;;;;;;;13.02;6.93;;;10.90;99.90;;;;;;4997726;28;20084;-74
2021/11/17 07:21:57;;;;;;;13.27;7.72;;;11.00;99.90;;;;;;5015431;28;20412;-72
2021/11/17 07:24:23;;;;;;;13.85;7.20;;;11.00;99.90;;;;;;5015123;28;20025;-73
2021/11/17 07:26:49;;;;;;;13.13;9.48;;;11.00;99.90;;;;;;5014962;28;20036;-73
2021/11/17 07:29:16;;;;;;;13.38;7.78;;;11.00;99.90;;;;;;5015356;28;20030;-72
2021/11/17 07:31:42;;;;;;;12.57;7.50;;;11.00;99.90;;;;;;5015055;28;20445;-71
2021/11/17 07:34:08;;;;;;;13.90;8.10;;;11.00;99.90;;;;;;4997618;28;20084;-73
2021/11/17 07:36:34;;;;;;;11.40;6.72;;;11.10;99.90;;;;;;5014890;28;20412;-72
2021/11/17 07:38:59;;;;;;;12.73;7.78;;;11.00;99.90;;;;;;5014767;28;20029;-73
2021/11/17 07:41:27;;;;;;;13.82;7.40;;;11.10;99.90;;;;;;5014604;28;20049;-73
2021/11/17 07:43:52;;;;;;;13.88;8.18;;;11.10;99.90;;;;;;5014732;28;20037;-71
2021/11/17 07:46:18;;;;;;;14.20;7.38;;;11.20;99.90;;;;;;5015041;28;20018;-71
2021/11/17 07:48:44;;;;;;;13.32;7.45;;;11.20;99.90;;;;;;5014936;28;20034;-72
2021/11/17 07:51:09;;;;;;;14.60;8.00;;;11.20;99.90;;;;;;5015201;28;20376;-71
2021/11/17 07:53:35;;;;;;;15.70;9.52;;;11.20;99.90;;;;;;5015173;28;20108;-71
2021/11/17 07:56:03;;;;;;;16.48;9.20;;;11.20;99.90;;;;;;5015126;28;20030;-72
2021/11/17 07:58:33;;;;;;;16.45;10.38;;;11.30;99.90;;;;;;5014536;28;20025;-71
2021/11/17 08:01:00;;;;;;;17.75;10.57;;;11.30;99.90;;;;;;5014873;28;20386;-71
2021/11/17 08:09:29;;;;;;;14.40;9.90;;;11.40;99.90;;;;;;4563091;28;20033;-71
2021/11/17 08:11:55;;;;;;;15.48;11.40;;;11.40;99.90;;;;;;5034368;28;20498;-71
2021/11/17 08:14:21;;;;;;;12.90;9.00;;;11.40;99.90;;;;;;5016262;28;20029;-71
2021/11/17 08:16:47;;;;;;;14.60;7.30;;;11.40;99.90;;;;;;5033966;28;20025;-70
2021/11/17 08:19:13;;;;;;;10.85;6.60;;;11.40;99.90;;;;;;5034210;28;20030;-72
2021/11/17 08:21:38;;;;;;;11.73;6.68;;;11.50;99.90;;;;;;5034481;28;20040;-73
2021/11/17 08:24:04;;;;;;;12.05;7.55;;;11.50;99.90;;;;;;5034025;28;20032;-72
2021/11/17 08:26:31;;;;;;;13.50;7.13;;;11.50;99.90;;;;;;5034083;28;20021;-72
2021/11/17 08:28:56;;;;;;;11.70;7.45;;;11.50;99.90;;;;;;5034007;28;20018;-72
2021/11/17 08:31:24;;;;;;;13.20;6.45;;;11.50;99.90;;;;;;5034267;28;20022;-71
2021/11/17 08:33:51;;;;;;;13.00;7.55;;;11.50;99.90;;;;;;5033977;28;20036;-72
2021/11/17 08:36:17;;;;;;;11.30;7.10;;;11.50;99.90;;;;;;5033623;28;20029;-70
2021/11/17 08:38:43;;;;;;;10.82;7.22;;;11.50;99.90;;;;;;5033868;28;20025;-71
2021/11/17 08:41:10;;;;;;;13.45;7.53;;;11.60;99.90;;;;;;5033604;28;20056;-72
2021/11/17 08:43:39;;;;;;;12.55;6.68;;;11.60;99.90;;;;;;5033475;28;20108;-72
2021/11/17 08:46:05;;;;;;;14.35;7.97;;;11.70;99.90;;;;;;5033495;28;20120;-72
2021/11/17 08:48:33;;;;;;;12.95;7.13;;;11.80;99.90;;;;;;5033441;28;20064;-71
2021/11/17 08:51:02;;;;;;;13.75;7.93;;;11.80;99.90;;;;;;5033447;28;20395;-72
2021/11/17 08:53:31;;;;;;;14.35;7.93;;;11.80;99.90;;;;;;5033353;28;20513;-74
2021/11/17 08:55:58;;;;;;;14.75;8.40;;;11.80;99.90;;;;;;5033367;28;20025;-73
2021/11/17 08:58:25;;;;;;;14.98;8.65;;;11.90;99.90;;;;;;5033380;28;20029;-75
2021/11/17 09:00:53;;;;;;;12.00;6.32;;;11.90;99.90;;;;;;5033576;28;20033;-74
2021/11/17 09:03:19;;;;;;;13.40;7.63;;;11.90;99.90;;;;;;5033211;28;20478;-73
2021/11/17 09:05:50;;;;;;;10.90;7.00;;;12.00;99.90;;;;;;5033202;28;20053;-74
2021/11/17 09:08:17;;;;;;;10.50;7.00;;;12.00;99.90;;;;;;5033041;28;20121;-74
2021/11/17 09:10:50;;;;;;;17.55;9.95;;;12.10;99.90;;;;;;5033538;28;20029;-74
2021/11/17 09:13:16;;;;;;;99.10;47.53;;;12.20;99.90;;;;;;5033458;28;20155;-75
2021/11/17 09:15:45;;;;;;;12.93;8.35;;;12.30;99.90;;;;;;5033170;28;20024;-75
2021/11/17 09:18:12;;;;;;;14.25;10.13;;;12.30;99.90;;;;;;5035309;28;20033;-75
2021/11/17 09:20:38;;;;;;;9.77;6.30;;;12.30;99.90;;;;;;5019526;28;20058;-75
2021/11/17 09:23:06;;;;;;;10.52;5.72;;;12.40;99.90;;;;;;5037380;28;20061;-76
2021/11/17 09:25:32;;;;;;;8.07;5.50;;;12.40;99.90;;;;;;5037200;28;20021;-75
2021/11/17 09:27:58;;;;;;;8.55;5.40;;;12.40;99.90;;;;;;5037400;28;20021;-76
2021/11/17 09:30:27;;;;;;;10.32;5.47;;;12.40;99.90;;;;;;5037072;28;20032;-75
2021/11/17 09:32:56;;;;;;;10.55;5.53;;;12.40;99.90;;;;;;5037038;28;20422;-74
2021/11/17 09:35:23;;;;;;;13.07;7.10;;;12.40;99.90;;;;;;5036920;28;20061;-74
2021/11/17 09:37:51;;;;;;;12.90;6.93;;;12.40;99.90;;;;;;5036985;28;20032;-75
2021/11/17 09:40:22;;;;;;;10.45;6.65;;;12.50;99.90;;;;;;5037185;28;20475;-75
2021/11/17 09:42:49;;;;;;;13.52;8.15;;;12.50;99.90;;;;;;5036859;28;20032;-75
2021/11/17 09:45:15;;;;;;;13.20;8.90;;;12.50;99.90;;;;;;5037313;28;20482;-75
2021/11/17 09:47:44;;;;;;;11.25;6.38;;;12.60;99.90;;;;;;5037018;28;20024;-74
2021/11/17 09:50:28;;;;;;;10.32;6.82;;;12.70;99.90;;;;;;5018978;28;20021;-74
2021/11/17 09:53:00;;;;;;;11.15;6.07;;;12.80;99.90;;;;;;5037005;28;20025;-75
2021/11/17 09:55:53;;;;;;;9.50;5.13;;;12.80;99.90;;;;;;5036669;28;20108;-74
2021/11/17 09:58:38;;;;;;;9.13;4.90;;;12.80;99.90;;;;;;5036674;28;20606;-76
2021/11/17 10:01:22;;;;;;;10.00;5.40;;;12.90;99.90;;;;;;5036869;28;20501;-74
2021/11/17 10:04:03;;;;;;;10.45;5.30;;;12.90;99.90;;;;;;5036774;28;20497;-76
2021/11/17 10:13:05;;;;;;;9.43;4.88;;;12.90;99.90;;;;;;5036635;28;20092;-74
2021/11/17 10:15:35;;;;;;;9.00;4.82;;;12.90;99.90;;;;;;5036857;28;20021;-76
2021/11/17 10:18:31;;;;;;;10.38;5.10;;;12.90;99.90;;;;;;5018507;28;20030;-74
2021/11/17 10:21:02;;;;;;;9.13;5.35;;;12.90;99.90;;;;;;5036694;28;20025;-76
2021/11/17 10:23:35;;;;;;;10.13;5.30;;;13.00;99.90;;;;;;5036677;28;20036;-75
2021/11/17 10:26:04;;;;;;;13.50;5.63;;;13.00;99.90;;;;;;5036361;28;20087;-74
2021/11/17 10:28:39;;;;;;;11.40;5.50;;;13.00;99.90;;;;;;5036237;28;20166;-76
2021/11/17 10:31:09;;;;;;;8.85;5.50;;;13.10;99.90;;;;;;5035590;28;20479;-74
2021/11/17 10:33:56;;;;;;;10.48;5.65;;;13.10;99.90;;;;;;5035956;28;20029;-76
2021/11/17 10:36:36;;;;;;;9.95;5.13;;;13.30;99.90;;;;;;5035883;28;20036;-75
2021/11/17 10:39:11;;;;;;;;;;;13.30;99.90;;;;;;5036844;28;20034;-75
2021/11/17 10:41:47;;;;;;;11.10;6.07;;;13.30;99.90;;;;;;5035802;28;19909;-75
2021/11/17 10:44:13;;;;;;;9.98;5.18;;;13.40;99.90;;;;;;5017631;28;20029;-76
2021/11/17 10:46:45;;;;;;;8.52;5.25;;;13.50;99.90;;;;;;5035667;28;20052;-75
2021/11/17 10:49:15;;;;;;;10.73;4.78;;;13.60;99.90;;;;;;5035644;28;20382;-76
2021/11/17 10:51:55;;;;;;;8.27;5.00;;;13.70;99.90;;;;;;5035608;28;20026;-74
2021/11/17 10:54:28;;;;;;;9.55;5.25;;;13.80;99.90;;;;;;5036065;28;20510;-74
2021/11/17 10:57:03;;;;;;;9.50;5.20;;;13.90;99.90;;;;;;5035787;28;20036;-77
2021/11/17 10:59:30;;;;;;;7.50;4.80;;;13.90;99.90;;;;;;5035739;28;20029;-77
2021/11/17 11:01:56;;;;;;;8.98;5.55;;;13.90;99.90;;;;;;5035418;28;20434;-76
2021/11/17 11:04:30;;;;;;;8.52;4.90;;;13.90;99.90;;;;;;5035246;28;20025;-75
2021/11/17 11:07:22;;;;;;;10.23;5.40;;;13.90;99.90;;;;;;5035257;28;20022;-77
2021/11/17 11:10:08;;;;;;;8.07;4.70;;;14.00;99.90;;;;;;5034261;28;20041;-77
2021/11/17 11:12:35;;;;;;;8.77;5.50;;;14.00;99.90;;;;;;5035511;28;20026;-76
2021/11/17 11:15:17;;;;;;;10.43;5.60;;;14.00;99.90;;;;;;5035646;28;20018;-77
2021/11/17 11:18:09;;;;;;;9.05;5.35;;;14.10;99.90;;;;;;5035662;28;20037;-76
2021/11/17 11:20:58;;;;;;;9.63;5.70;;;14.20;99.90;;;;;;5035559;28;20101;-74
2021/11/17 11:23:31;;;;;;;10.02;6.13;;;14.10;99.90;;;;;;5035486;28;20021;-75
2021/11/17 11:25:59;;;;;;;8.65;5.38;;;14.10;99.90;;;;;;5035282;28;20475;-77
2021/11/17 11:28:38;;;;;;;9.95;5.68;;;14.10;99.90;;;;;;5034886;28;20472;-74
2021/11/17 11:31:06;;;;;;;11.50;6.15;;;14.10;99.90;;;;;;5035166;28;20495;-76
2021/11/17 11:33:35;;;;;;;11.18;6.35;;;14.00;99.90;;;;;;5034793;28;20104;-75
2021/11/17 11:36:23;;;;;;;9.60;5.60;;;13.90;99.90;;;;;;5034720;28;20060;-75
2021/11/17 11:39:11;;;;;;;10.07;6.03;;;13.90;99.90;;;;;;4989231;28;20120;-75
2021/11/17 11:42:18;;;;;;;10.07;5.82;;;13.90;99.90;;;;;;5034566;28;20025;-75
2021/11/17 11:44:49;;;;;;;8.30;4.93;;;13.90;99.90;;;;;;4980291;28;20053;-76
2021/11/17 11:47:21;;;;;;;10.70;5.22;;;13.80;99.90;;;;;;5034527;28;20109;-77
2021/11/17 11:49:50;;;;;;;8.95;4.78;;;13.80;99.90;;;;;;5034824;28;20029;-76
2021/11/17 11:52:22;;;;;;;9.45;4.53;;;13.80;99.90;;;;;;5034731;28;20139;-74
2021/11/17 11:54:54;;;;;;;8.85;4.47;;;13.80;99.90;;;;;;5034382;28;20497;-77
2021/11/17 11:57:51;;;;;;;8.32;4.25;;;13.90;99.90;;;;;;5034395;28;20045;-75
2021/11/17 12:00:35;;;;;;;9.90;3.85;;;13.90;99.90;;;;;;5033765;28;20108;-76
2021/11/17 12:03:06;;;;;;;6.93;3.95;;;14.00;99.90;;;;;;5034479;28;20034;-75
2021/11/17 12:05:53;;;;;;;10.02;4.10;;;14.00;99.90;;;;;;5034399;28;20458;-75
2021/11/17 12:08:25;;;;;;;9.52;4.47;;;14.00;99.90;;;;;;5034222;28;20096;-74
2021/11/17 12:11:06;;;;;;;7.50;4.50;;;14.10;99.90;;;;;;5034105;28;20495;-76
2021/11/17 12:13:33;;;;;;;;;;;14.10;99.90;;;;;;5034748;28;20029;-75
2021/11/17 12:16:13;;;;;;;5.40;3.42;;;13.90;99.90;;;;;;5033981;28;19950;-75
2021/11/17 12:18:52;;;;;;;9.82;5.75;;;13.90;99.90;;;;;;5034259;28;20025;-76
2021/11/17 12:21:30;;;;;;;7.88;6.10;;;13.90;99.90;;;;;;5034263;28;20526;-75
2021/11/17 12:24:12;;;;;;;10.00;6.15;;;13.80;99.90;;;;;;5034137;28;20030;-75
2021/11/17 12:26:44;;;;;;;9.88;5.40;;;13.80;99.90;;;;;;5033816;28;20558;-75
2021/11/17 12:29:16;;;;;;;9.55;4.70;;;13.80;99.90;;;;;;5034073;28;20395;-76
2021/11/17 12:32:03;;;;;;;5.50;2.70;;;14.10;99.90;;;;;;5033758;28;20029;-77
2021/11/17 12:34:47;;;;;;;4.63;2.13;;;14.20;99.90;;;;;;5015927;28;20029;-74
2021/11/17 12:37:34;;;;;;;4.00;1.80;;;14.30;99.90;;;;;;5015683;28;20025;-76
2021/11/17 12:40:28;;;;;;;3.28;1.70;;;14.30;99.90;;;;;;5033895;28;20057;-77
2021/11/17 12:42:58;;;;;;;5.70;2.45;;;14.30;99.90;;;;;;5012096;28;20041;-76
2021/11/17 12:45:32;;;;;;;5.20;3.07;;;14.30;99.90;;;;;;5033493;28;20017;-77
2021/11/17 12:48:06;;;;;;;5.60;1.90;;;14.40;99.90;;;;;;5033440;28;20096;-75
2021/11/17 12:50:42;;;;;;;6.15;2.20;;;14.40;99.90;;;;;;5033757;28;20025;-75
2021/11/17 12:53:22;;;;;;;5.20;2.00;;;14.50;99.90;;;;;;5033545;28;20059;-75
2021/11/17 12:56:02;;;;;;;3.85;1.77;;;14.50;99.90;;;;;;5034004;28;20037;-75
2021/11/17 12:58:46;;;;;;;4.97;2.03;;;14.50;99.90;;;;;;5033672;28;20029;-75
2021/11/17 13:01:22;;;;;;;2.47;1.50;;;14.50;99.90;;;;;;5033588;28;20387;-75
2021/11/17 13:03:48;;;;;;;4.80;1.77;;;14.60;99.90;;;;;;5033542;28;20029;-77
2021/11/17 13:06:19;;;;;;;5.70;1.98;;;14.50;99.90;;;;;;5033161;28;20475;-76
2021/11/17 13:08:47;;;;;;;3.45;1.95;;;14.60;99.90;;;;;;5033008;28;20092;-75
2021/11/17 13:11:18;;;;;;;8.52;2.10;;;14.50;99.90;;;;;;5033177;28;20032;-76
2021/11/17 13:13:50;;;;;;;5.00;1.88;;;14.50;99.90;;;;;;5033154;28;20017;-77
2021/11/17 13:16:32;;;;;;;4.35;2.30;;;14.60;99.90;;;;;;5033719;28;20034;-75
2021/11/17 13:19:26;;;;;;;6.85;2.10;;;14.50;99.90;;;;;;5033198;28;20486;-76
2021/11/17 13:21:55;;;;;;;7.70;2.28;;;14.40;99.90;;;;;;5021315;28;20034;-75
2021/11/17 13:24:21;;;;;;;4.93;2.33;;;14.40;99.90;;;;;;5014359;28;20025;-77
2021/11/17 13:26:53;;;;;;;5.00;1.90;;;14.40;99.90;;;;;;5033034;28;20497;-75
2021/11/17 13:29:29;;;;;;;5.32;2.00;;;14.40;99.90;;;;;;5033307;28;20037;-75
2021/11/17 13:32:07;;;;;;;3.47;1.90;;;14.40;99.90;;;;;;5033556;28;20108;-77
2021/11/17 13:34:38;;;;;;;3.72;2.03;;;14.30;99.90;;;;;;5032968;28;20542;-75
2021/11/17 13:37:34;;;;;;;5.53;2.20;;;14.40;99.90;;;;;;5032949;28;20056;-76
2021/11/17 13:40:08;;;;;;;4.47;1.80;;;14.40;99.90;;;;;;5033499;28;20032;-75
2021/11/17 13:42:35;;;;;;;6.93;2.10;;;14.40;99.90;;;;;;5032862;28;20422;-76
2021/11/17 13:45:05;;;;;;;4.97;2.00;;;14.30;99.90;;;;;;5033159;28;20025;-75
2021/11/17 13:47:31;;;;;;;4.30;2.10;;;14.30;99.90;;;;;;5014936;28;20053;-74
2021/11/17 13:49:58;;;;;;;6.50;1.80;;;14.30;99.90;;;;;;5033118;28;20542;-77
2021/11/17 13:52:28;;;;;;;4.65;1.90;;;14.30;99.90;;;;;;5032812;28;20026;-77
2021/11/17 13:54:54;;;;;;;6.45;2.22;;;14.30;99.90;;;;;;5032753;28;20387;-77
2021/11/17 13:57:22;;;;;;;11.30;2.55;;;14.30;99.90;;;;;;5033040;28;20068;-75
2021/11/17 13:59:48;;;;;;;7.35;2.20;;;14.30;99.90;;;;;;5032995;28;20022;-76
2021/11/17 14:02:14;;;;;;;9.82;2.20;;;14.20;99.90;;;;;;5033018;28;20164;-76
2021/11/17 14:04:40;;;;;;;9.15;2.33;;;14.10;99.90;;;;;;5033849;28;20055;-76
2021/11/17 14:07:07;;;;;;;9.77;2.17;;;14.10;99.90;;;;;;5036329;28;20044;-76
2021/11/17 14:09:33;;;;;;;9.93;2.17;;;14.00;99.90;;;;;;5036127;28;20384;-75
2021/11/17 14:12:00;;;;;;;10.32;2.95;;;14.00;99.90;;;;;;5036365;28;20021;-77
2021/11/17 14:14:27;;;;;;;8.32;2.15;;;13.90;99.90;;;;;;5036330;28;20021;-75
2021/11/17 14:16:53;;;;;;;11.98;2.88;;;14.00;99.90;;;;;;5036286;28;20451;-75
2021/11/17 14:19:19;;;;;;;11.52;2.70;;;14.00;99.90;;;;;;5036476;28;20111;-74
2021/11/17 14:21:45;;;;;;;14.77;3.13;;;13.90;99.90;;;;;;5036420;28;20028;-75
2021/11/17 14:24:12;;;;;;;9.43;3.15;;;13.90;99.90;;;;;;5036349;28;20033;-74
2021/11/17 14:26:41;;;;;;;11.13;3.25;;;13.90;99.90;;;;;;5036266;28;20029;-75
2021/11/17 14:29:16;;;;;;;12.55;3.38;;;13.90;99.90;;;;;;5035991;28;20376;-75
2021/11/17 14:31:48;;;;;;;7.78;2.15;;;13.90;99.90;;;;;;5036588;28;20132;-77
2021/11/17 14:34:15;;;;;;;14.27;2.58;;;13.90;99.90;;;;;;5036198;28;20041;-74
2021/11/17 14:36:52;;;;;;;11.57;2.65;;;13.90;99.90;;;;;;5035907;28;20049;-77
2021/11/17 14:39:21;;;;;;;12.77;3.25;;;13.80;99.90;;;;;;5036170;28;20026;-77
2021/11/17 14:41:47;;;;;;;14.05;3.92;;;13.80;99.90;;;;;;5036079;28;20025;-76
2021/11/17 14:44:14;;;;;;;14.10;4.82;;;13.80;99.90;;;;;;5036215;28;20029;-74
2021/11/17 14:46:41;;;;;;;26.25;13.85;;;13.80;99.90;;;;;;5035699;28;20045;-77
2021/11/17 14:49:07;;;;;;;15.60;6.15;;;13.80;99.90;;;;;;5035674;28;20025;-75
2021/11/17 14:51:33;;;;;;;22.17;9.63;;;13.70;99.90;;;;;;5035932;28;20076;-75
2021/11/17 14:53:59;;;;;;;20.13;9.73;;;13.60;99.90;;;;;;5035550;28;20079;-75
2021/11/17 14:56:25;;;;;;;18.42;7.25;;;13.60;99.90;;;;;;5035521;28;20025;-74
2021/11/17 14:58:53;;;;;;;8.85;2.50;;;13.60;99.90;;;;;;5035472;28;20030;-75
2021/11/17 15:01:22;;;;;;;8.63;2.67;;;13.60;99.90;;;;;;5035417;28;20022;-77
2021/11/17 15:03:49;;;;;;;12.73;4.20;;;13.60;99.90;;;;;;5035340;28;20502;-76
2021/11/17 15:06:17;;;;;;;28.38;16.10;;;13.60;99.90;;;;;;5035250;28;20476;-75
2021/11/17 15:08:43;;;;;;;21.05;6.75;;;13.50;99.90;;;;;;5035058;28;20037;-76
2021/11/17 15:11:10;;;;;;;14.45;4.28;;;13.60;99.90;;;;;;5035513;28;20025;-76
2021/11/17 15:13:37;;;;;;;10.93;3.65;;;13.60;99.90;;;;;;5035199;28;20037;-75
2021/11/17 15:16:06;;;;;;;14.23;5.50;;;13.50;99.90;;;;;;5034824;28;20025;-76
2021/11/17 15:18:32;;;;;;;22.60;10.65;;;13.50;99.90;;;;;;5035412;28;20545;-76
2021/11/17 15:20:58;;;;;;;19.38;8.27;;;13.50;99.90;;;;;;5017345;28;20029;-75
2021/11/17 15:23:25;;;;;;;18.23;5.68;;;13.40;99.90;;;;;;5035502;28;20025;-75
2021/11/17 15:25:51;;;;;;;10.23;4.10;;;13.40;99.90;;;;;;5034966;28;20095;-76
2021/11/17 15:28:21;;;;;;;9.57;3.13;;;13.40;99.90;;;;;;5034857;28;20503;-76
2021/11/17 15:30:52;;;;;;;9.20;2.88;;;13.40;99.90;;;;;;5035216;28;20030;-77
2021/11/17 15:33:17;;;;;;;15.20;3.05;;;13.40;99.90;;;;;;5016882;28;20124;-76
2021/11/17 15:35:43;;;;;;;11.60;2.97;;;13.40;99.90;;;;;;5034754;28;20061;-77
2021/11/17 15:38:10;;;;;;;15.88;2.90;;;13.30;99.90;;;;;;5035049;28;20049;-75
2021/11/17 15:40:40;;;;;;;13.27;2.83;;;13.30;99.90;;;;;;5034705;28;20032;-75
2021/11/17 15:43:06;;;;;;;;;;;13.20;99.90;;;;;;5035309;28;20029;-75
2021/11/17 15:45:32;;;;;;;11.13;3.00;;;13.30;99.90;;;;;;5034583;28;20008;-77
2021/11/17 15:47:59;;;;;;;6.63;1.80;;;13.30;99.90;;;;;;5034572;28;20085;-75
2021/11/17 15:50:38;;;;;;;10.05;2.70;;;13.40;99.90;;;;;;5034522;28;20394;-75
2021/11/17 15:53:04;;;;;;;10.50;3.35;;;13.30;99.90;;;;;;5034434;28;20033;-75
2021/11/17 15:55:30;;;;;;;11.60;3.35;;;13.30;99.90;;;;;;5034175;28;20033;-76